<?xml version="1.0" encoding="UTF-8"?>
<gpx creator="Wikiloc - http://www.wikiloc.com" version="1.1" xmlns="http://www.topografix.com/GPX/1/1" xmlns:xsi="http://www.w3.org/2001/XMLSchema-instance" xsi:schemaLocation="http://www.topografix.com/GPX/1/1 http://www.topografix.com/GPX/1/1/gpx.xsd">
  <trk>
    <name>Volta al Pla de Bacies (Port del Comte)</name>
    <cmt>El massís de Port del Comte, amaga darrere l’estació d'esquí un fantàstic prat subalpí, és el Pla de Bacies. Podem acostar-nos en cotxe des de Coll de Jou o des de el pàrquing de l’Estivella. Sempre que la neu ho permeti (aneu amb compte a l'hivern),  aquest dos accessos ens permetran acostar-nos en cotxe fins a un dels dos pàrquings des d’on poden inicia la caminada. 
Caminada planera i gens exigent, amb dos miradors amb una vista excepcional al Solsonès.
</cmt>
    <desc>El massís de Port del Comte, amaga darrere l’estació d'esquí un fantàstic prat subalpí, és el Pla de Bacies. Podem acostar-nos en cotxe des de Coll de Jou o des de el pàrquing de l’Estivella. Sempre que la neu ho permeti (aneu amb compte a l'hivern),  aquest dos accessos ens permetran acostar-nos en cotxe fins a un dels dos pàrquings des d’on poden inicia la caminada. 
Caminada planera i gens exigent, amb dos miradors amb una vista excepcional al Solsonès.
</desc>
    <trkseg>
      <trkpt lat="42.151205" lon="1.507517">
        <ele>2041.1</ele>
        <time>2014-09-03T10:37:13Z</time>
      </trkpt>
      <trkpt lat="42.151315" lon="1.507584">
        <ele>2042.3</ele>
        <time>2014-09-03T10:37:33Z</time>
      </trkpt>
      <trkpt lat="42.151427" lon="1.507650">
        <ele>2040.8</ele>
        <time>2014-09-03T10:37:53Z</time>
      </trkpt>
      <trkpt lat="42.151505" lon="1.507712">
        <ele>2039.7</ele>
        <time>2014-09-03T10:38:13Z</time>
      </trkpt>
      <trkpt lat="42.151583" lon="1.507775">
        <ele>2038.7</ele>
        <time>2014-09-03T10:38:33Z</time>
      </trkpt>
      <trkpt lat="42.151638" lon="1.507892">
        <ele>2037.6</ele>
        <time>2014-09-03T10:38:53Z</time>
      </trkpt>
      <trkpt lat="42.151694" lon="1.508009">
        <ele>2036.7</ele>
        <time>2014-09-03T10:39:13Z</time>
      </trkpt>
      <trkpt lat="42.151749" lon="1.508127">
        <ele>2036.2</ele>
        <time>2014-09-03T10:39:33Z</time>
      </trkpt>
      <trkpt lat="42.151783" lon="1.508258">
        <ele>2035.7</ele>
        <time>2014-09-03T10:39:53Z</time>
      </trkpt>
      <trkpt lat="42.151816" lon="1.508389">
        <ele>2035.5</ele>
        <time>2014-09-03T10:40:13Z</time>
      </trkpt>
      <trkpt lat="42.151850" lon="1.508520">
        <ele>2037.6</ele>
        <time>2014-09-03T10:40:33Z</time>
      </trkpt>
      <trkpt lat="42.151910" lon="1.508627">
        <ele>2040.8</ele>
        <time>2014-09-03T10:40:53Z</time>
      </trkpt>
      <trkpt lat="42.151970" lon="1.508734">
        <ele>2042.7</ele>
        <time>2014-09-03T10:41:13Z</time>
      </trkpt>
      <trkpt lat="42.151980" lon="1.508897">
        <ele>2041.1</ele>
        <time>2014-09-03T10:41:33Z</time>
      </trkpt>
      <trkpt lat="42.151989" lon="1.509060">
        <ele>2040.0</ele>
        <time>2014-09-03T10:41:53Z</time>
      </trkpt>
      <trkpt lat="42.151991" lon="1.509213">
        <ele>2039.0</ele>
        <time>2014-09-03T10:42:13Z</time>
      </trkpt>
      <trkpt lat="42.151993" lon="1.509366">
        <ele>2038.1</ele>
        <time>2014-09-03T10:42:33Z</time>
      </trkpt>
      <trkpt lat="42.151973" lon="1.509544">
        <ele>2036.3</ele>
        <time>2014-09-03T10:42:53Z</time>
      </trkpt>
      <trkpt lat="42.152062" lon="1.509621">
        <ele>2035.9</ele>
        <time>2014-09-03T10:43:13Z</time>
      </trkpt>
      <trkpt lat="42.152019" lon="1.509706">
        <ele>2035.5</ele>
        <time>2014-09-03T10:43:33Z</time>
      </trkpt>
      <trkpt lat="42.151976" lon="1.509791">
        <ele>2034.5</ele>
        <time>2014-09-03T10:43:53Z</time>
      </trkpt>
      <trkpt lat="42.151937" lon="1.509896">
        <ele>2031.8</ele>
        <time>2014-09-03T10:44:13Z</time>
      </trkpt>
      <trkpt lat="42.151898" lon="1.510001">
        <ele>2030.8</ele>
        <time>2014-09-03T10:44:33Z</time>
      </trkpt>
      <trkpt lat="42.151925" lon="1.510099">
        <ele>2030.0</ele>
        <time>2014-09-03T10:44:53Z</time>
      </trkpt>
      <trkpt lat="42.151952" lon="1.510197">
        <ele>2029.0</ele>
        <time>2014-09-03T10:45:13Z</time>
      </trkpt>
      <trkpt lat="42.151903" lon="1.510346">
        <ele>2024.5</ele>
        <time>2014-09-03T10:45:33Z</time>
      </trkpt>
      <trkpt lat="42.151941" lon="1.510424">
        <ele>2023.6</ele>
        <time>2014-09-03T10:45:53Z</time>
      </trkpt>
      <trkpt lat="42.151978" lon="1.510502">
        <ele>2022.7</ele>
        <time>2014-09-03T10:46:13Z</time>
      </trkpt>
      <trkpt lat="42.152045" lon="1.510560">
        <ele>2022.5</ele>
        <time>2014-09-03T10:46:33Z</time>
      </trkpt>
      <trkpt lat="42.152112" lon="1.510618">
        <ele>2022.5</ele>
        <time>2014-09-03T10:46:53Z</time>
      </trkpt>
      <trkpt lat="42.152157" lon="1.510701">
        <ele>2021.8</ele>
        <time>2014-09-03T10:47:13Z</time>
      </trkpt>
      <trkpt lat="42.152202" lon="1.510784">
        <ele>2021.4</ele>
        <time>2014-09-03T10:47:33Z</time>
      </trkpt>
      <trkpt lat="42.152246" lon="1.510918">
        <ele>2020.7</ele>
        <time>2014-09-03T10:47:53Z</time>
      </trkpt>
      <trkpt lat="42.152289" lon="1.511052">
        <ele>2019.9</ele>
        <time>2014-09-03T10:48:13Z</time>
      </trkpt>
      <trkpt lat="42.152333" lon="1.511186">
        <ele>2019.0</ele>
        <time>2014-09-03T10:48:33Z</time>
      </trkpt>
      <trkpt lat="42.152319" lon="1.511295">
        <ele>2018.1</ele>
        <time>2014-09-03T10:48:53Z</time>
      </trkpt>
      <trkpt lat="42.152306" lon="1.511404">
        <ele>2017.3</ele>
        <time>2014-09-03T10:49:13Z</time>
      </trkpt>
      <trkpt lat="42.152293" lon="1.511537">
        <ele>2016.1</ele>
        <time>2014-09-03T10:49:33Z</time>
      </trkpt>
      <trkpt lat="42.152280" lon="1.511671">
        <ele>2014.9</ele>
        <time>2014-09-03T10:49:53Z</time>
      </trkpt>
      <trkpt lat="42.152278" lon="1.511789">
        <ele>2013.9</ele>
        <time>2014-09-03T10:50:13Z</time>
      </trkpt>
      <trkpt lat="42.152276" lon="1.511908">
        <ele>2012.6</ele>
        <time>2014-09-03T10:50:33Z</time>
      </trkpt>
      <trkpt lat="42.152237" lon="1.512003">
        <ele>2011.1</ele>
        <time>2014-09-03T10:50:53Z</time>
      </trkpt>
      <trkpt lat="42.152198" lon="1.512098">
        <ele>2010.0</ele>
        <time>2014-09-03T10:51:13Z</time>
      </trkpt>
      <trkpt lat="42.152189" lon="1.512271">
        <ele>2008.3</ele>
        <time>2014-09-03T10:51:33Z</time>
      </trkpt>
      <trkpt lat="42.152180" lon="1.512444">
        <ele>2006.8</ele>
        <time>2014-09-03T10:51:53Z</time>
      </trkpt>
      <trkpt lat="42.152203" lon="1.512557">
        <ele>2006.3</ele>
        <time>2014-09-03T10:52:13Z</time>
      </trkpt>
      <trkpt lat="42.152227" lon="1.512670">
        <ele>2006.1</ele>
        <time>2014-09-03T10:52:33Z</time>
      </trkpt>
      <trkpt lat="42.152303" lon="1.512816">
        <ele>2005.9</ele>
        <time>2014-09-03T10:52:53Z</time>
      </trkpt>
      <trkpt lat="42.152278" lon="1.512936">
        <ele>2005.0</ele>
        <time>2014-09-03T10:53:13Z</time>
      </trkpt>
      <trkpt lat="42.152254" lon="1.513055">
        <ele>2004.3</ele>
        <time>2014-09-03T10:53:33Z</time>
      </trkpt>
      <trkpt lat="42.152263" lon="1.513207">
        <ele>2003.4</ele>
        <time>2014-09-03T10:53:53Z</time>
      </trkpt>
      <trkpt lat="42.152273" lon="1.513360">
        <ele>2002.5</ele>
        <time>2014-09-03T10:54:13Z</time>
      </trkpt>
      <trkpt lat="42.152238" lon="1.513485">
        <ele>2001.5</ele>
        <time>2014-09-03T10:54:33Z</time>
      </trkpt>
      <trkpt lat="42.152202" lon="1.513609">
        <ele>2000.5</ele>
        <time>2014-09-03T10:54:53Z</time>
      </trkpt>
      <trkpt lat="42.152241" lon="1.513722">
        <ele>2000.0</ele>
        <time>2014-09-03T10:55:13Z</time>
      </trkpt>
      <trkpt lat="42.152279" lon="1.513835">
        <ele>1999.5</ele>
        <time>2014-09-03T10:55:33Z</time>
      </trkpt>
      <trkpt lat="42.152325" lon="1.513957">
        <ele>1998.9</ele>
        <time>2014-09-03T10:55:53Z</time>
      </trkpt>
      <trkpt lat="42.152370" lon="1.514079">
        <ele>1998.2</ele>
        <time>2014-09-03T10:56:13Z</time>
      </trkpt>
      <trkpt lat="42.152427" lon="1.514187">
        <ele>1997.4</ele>
        <time>2014-09-03T10:56:33Z</time>
      </trkpt>
      <trkpt lat="42.152483" lon="1.514294">
        <ele>1996.5</ele>
        <time>2014-09-03T10:56:53Z</time>
      </trkpt>
      <trkpt lat="42.152602" lon="1.514351">
        <ele>1995.4</ele>
        <time>2014-09-03T10:57:13Z</time>
      </trkpt>
      <trkpt lat="42.152609" lon="1.514347">
        <ele>1995.3</ele>
        <time>2014-09-03T10:57:33Z</time>
      </trkpt>
      <trkpt lat="42.152671" lon="1.514315">
        <ele>1995.1</ele>
        <time>2014-09-03T10:57:53Z</time>
      </trkpt>
      <trkpt lat="42.152741" lon="1.514278">
        <ele>1994.9</ele>
        <time>2014-09-03T10:58:13Z</time>
      </trkpt>
      <trkpt lat="42.152858" lon="1.514246">
        <ele>1994.1</ele>
        <time>2014-09-03T10:58:33Z</time>
      </trkpt>
      <trkpt lat="42.152983" lon="1.514258">
        <ele>1995.9</ele>
        <time>2014-09-03T10:58:53Z</time>
      </trkpt>
      <trkpt lat="42.153108" lon="1.514270">
        <ele>1997.3</ele>
        <time>2014-09-03T10:59:13Z</time>
      </trkpt>
      <trkpt lat="42.153205" lon="1.514350">
        <ele>1998.0</ele>
        <time>2014-09-03T10:59:33Z</time>
      </trkpt>
      <trkpt lat="42.153301" lon="1.514430">
        <ele>1998.9</ele>
        <time>2014-09-03T10:59:53Z</time>
      </trkpt>
      <trkpt lat="42.153398" lon="1.514510">
        <ele>1999.9</ele>
        <time>2014-09-03T11:00:13Z</time>
      </trkpt>
      <trkpt lat="42.153476" lon="1.514602">
        <ele>2000.1</ele>
        <time>2014-09-03T11:00:33Z</time>
      </trkpt>
      <trkpt lat="42.153555" lon="1.514694">
        <ele>2000.1</ele>
        <time>2014-09-03T11:00:53Z</time>
      </trkpt>
      <trkpt lat="42.153655" lon="1.514795">
        <ele>2000.1</ele>
        <time>2014-09-03T11:01:13Z</time>
      </trkpt>
      <trkpt lat="42.153755" lon="1.514897">
        <ele>1999.9</ele>
        <time>2014-09-03T11:01:33Z</time>
      </trkpt>
      <trkpt lat="42.153874" lon="1.514929">
        <ele>1999.6</ele>
        <time>2014-09-03T11:01:53Z</time>
      </trkpt>
      <trkpt lat="42.153992" lon="1.514960">
        <ele>1999.0</ele>
        <time>2014-09-03T11:02:13Z</time>
      </trkpt>
      <trkpt lat="42.154056" lon="1.514965">
        <ele>1998.8</ele>
        <time>2014-09-03T11:02:33Z</time>
      </trkpt>
      <trkpt lat="42.154087" lon="1.514968">
        <ele>1998.7</ele>
        <time>2014-09-03T11:02:53Z</time>
      </trkpt>
      <trkpt lat="42.154111" lon="1.515091">
        <ele>1997.8</ele>
        <time>2014-09-03T11:03:13Z</time>
      </trkpt>
      <trkpt lat="42.154134" lon="1.515214">
        <ele>1997.9</ele>
        <time>2014-09-03T11:03:33Z</time>
      </trkpt>
      <trkpt lat="42.154125" lon="1.515342">
        <ele>1998.6</ele>
        <time>2014-09-03T11:03:53Z</time>
      </trkpt>
      <trkpt lat="42.154116" lon="1.515471">
        <ele>1999.2</ele>
        <time>2014-09-03T11:04:13Z</time>
      </trkpt>
      <trkpt lat="42.154048" lon="1.515582">
        <ele>1999.2</ele>
        <time>2014-09-03T11:04:33Z</time>
      </trkpt>
      <trkpt lat="42.153979" lon="1.515692">
        <ele>1999.1</ele>
        <time>2014-09-03T11:04:53Z</time>
      </trkpt>
      <trkpt lat="42.153925" lon="1.515807">
        <ele>1998.9</ele>
        <time>2014-09-03T11:05:13Z</time>
      </trkpt>
      <trkpt lat="42.153872" lon="1.515922">
        <ele>1998.6</ele>
        <time>2014-09-03T11:05:33Z</time>
      </trkpt>
      <trkpt lat="42.153793" lon="1.516045">
        <ele>1998.0</ele>
        <time>2014-09-03T11:05:53Z</time>
      </trkpt>
      <trkpt lat="42.153713" lon="1.516169">
        <ele>1997.4</ele>
        <time>2014-09-03T11:06:13Z</time>
      </trkpt>
      <trkpt lat="42.153634" lon="1.516293">
        <ele>1996.7</ele>
        <time>2014-09-03T11:06:33Z</time>
      </trkpt>
      <trkpt lat="42.153602" lon="1.516382">
        <ele>1996.5</ele>
        <time>2014-09-03T11:06:53Z</time>
      </trkpt>
      <trkpt lat="42.153587" lon="1.516425">
        <ele>1996.3</ele>
        <time>2014-09-03T11:07:13Z</time>
      </trkpt>
      <trkpt lat="42.153570" lon="1.516472">
        <ele>1996.2</ele>
        <time>2014-09-03T11:07:33Z</time>
      </trkpt>
      <trkpt lat="42.153587" lon="1.516640">
        <ele>1995.9</ele>
        <time>2014-09-03T11:07:53Z</time>
      </trkpt>
      <trkpt lat="42.153567" lon="1.516759">
        <ele>1995.5</ele>
        <time>2014-09-03T11:08:13Z</time>
      </trkpt>
      <trkpt lat="42.153546" lon="1.516878">
        <ele>1995.1</ele>
        <time>2014-09-03T11:08:33Z</time>
      </trkpt>
      <trkpt lat="42.153474" lon="1.517018">
        <ele>1994.1</ele>
        <time>2014-09-03T11:08:53Z</time>
      </trkpt>
      <trkpt lat="42.153465" lon="1.517146">
        <ele>1993.6</ele>
        <time>2014-09-03T11:09:13Z</time>
      </trkpt>
      <trkpt lat="42.153455" lon="1.517275">
        <ele>1993.0</ele>
        <time>2014-09-03T11:09:33Z</time>
      </trkpt>
      <trkpt lat="42.153471" lon="1.517373">
        <ele>1992.9</ele>
        <time>2014-09-03T11:09:53Z</time>
      </trkpt>
      <trkpt lat="42.153487" lon="1.517472">
        <ele>1992.8</ele>
        <time>2014-09-03T11:10:13Z</time>
      </trkpt>
      <trkpt lat="42.153548" lon="1.517589">
        <ele>1993.8</ele>
        <time>2014-09-03T11:10:33Z</time>
      </trkpt>
      <trkpt lat="42.153611" lon="1.517671">
        <ele>1994.8</ele>
        <time>2014-09-03T11:10:53Z</time>
      </trkpt>
      <trkpt lat="42.153675" lon="1.517754">
        <ele>1995.5</ele>
        <time>2014-09-03T11:11:13Z</time>
      </trkpt>
      <trkpt lat="42.153739" lon="1.517881">
        <ele>1996.3</ele>
        <time>2014-09-03T11:11:33Z</time>
      </trkpt>
      <trkpt lat="42.153803" lon="1.518008">
        <ele>1997.0</ele>
        <time>2014-09-03T11:11:53Z</time>
      </trkpt>
      <trkpt lat="42.153860" lon="1.518115">
        <ele>1997.7</ele>
        <time>2014-09-03T11:12:13Z</time>
      </trkpt>
      <trkpt lat="42.153916" lon="1.518223">
        <ele>1997.7</ele>
        <time>2014-09-03T11:12:33Z</time>
      </trkpt>
      <trkpt lat="42.153980" lon="1.518280">
        <ele>1997.8</ele>
        <time>2014-09-03T11:12:53Z</time>
      </trkpt>
      <trkpt lat="42.154043" lon="1.518338">
        <ele>1997.5</ele>
        <time>2014-09-03T11:13:13Z</time>
      </trkpt>
      <trkpt lat="42.154131" lon="1.518321">
        <ele>1998.6</ele>
        <time>2014-09-03T11:13:33Z</time>
      </trkpt>
      <trkpt lat="42.154219" lon="1.518304">
        <ele>1999.3</ele>
        <time>2014-09-03T11:13:53Z</time>
      </trkpt>
      <trkpt lat="42.154315" lon="1.518322">
        <ele>1999.7</ele>
        <time>2014-09-03T11:14:13Z</time>
      </trkpt>
      <trkpt lat="42.154410" lon="1.518340">
        <ele>2000.3</ele>
        <time>2014-09-03T11:14:33Z</time>
      </trkpt>
      <trkpt lat="42.154456" lon="1.518487">
        <ele>2000.6</ele>
        <time>2014-09-03T11:14:53Z</time>
      </trkpt>
      <trkpt lat="42.154458" lon="1.518630">
        <ele>2001.4</ele>
        <time>2014-09-03T11:15:13Z</time>
      </trkpt>
      <trkpt lat="42.154460" lon="1.518773">
        <ele>2001.6</ele>
        <time>2014-09-03T11:15:33Z</time>
      </trkpt>
      <trkpt lat="42.154491" lon="1.518861">
        <ele>2001.8</ele>
        <time>2014-09-03T11:15:53Z</time>
      </trkpt>
      <trkpt lat="42.154521" lon="1.518949">
        <ele>2001.9</ele>
        <time>2014-09-03T11:16:13Z</time>
      </trkpt>
      <trkpt lat="42.154523" lon="1.519098">
        <ele>2001.6</ele>
        <time>2014-09-03T11:16:33Z</time>
      </trkpt>
      <trkpt lat="42.154569" lon="1.519225">
        <ele>2001.8</ele>
        <time>2014-09-03T11:16:53Z</time>
      </trkpt>
      <trkpt lat="42.154541" lon="1.519384">
        <ele>2001.5</ele>
        <time>2014-09-03T11:17:13Z</time>
      </trkpt>
      <trkpt lat="42.154555" lon="1.519561">
        <ele>2001.7</ele>
        <time>2014-09-03T11:17:33Z</time>
      </trkpt>
      <trkpt lat="42.154568" lon="1.519738">
        <ele>2001.7</ele>
        <time>2014-09-03T11:17:53Z</time>
      </trkpt>
      <trkpt lat="42.154592" lon="1.519866">
        <ele>2001.7</ele>
        <time>2014-09-03T11:18:13Z</time>
      </trkpt>
      <trkpt lat="42.154615" lon="1.519994">
        <ele>2001.7</ele>
        <time>2014-09-03T11:18:33Z</time>
      </trkpt>
      <trkpt lat="42.154639" lon="1.520122">
        <ele>2001.8</ele>
        <time>2014-09-03T11:18:53Z</time>
      </trkpt>
      <trkpt lat="42.154652" lon="1.520285">
        <ele>2001.3</ele>
        <time>2014-09-03T11:19:13Z</time>
      </trkpt>
      <trkpt lat="42.154665" lon="1.520448">
        <ele>1999.5</ele>
        <time>2014-09-03T11:19:33Z</time>
      </trkpt>
      <trkpt lat="42.154696" lon="1.520536">
        <ele>1999.8</ele>
        <time>2014-09-03T11:19:53Z</time>
      </trkpt>
      <trkpt lat="42.154726" lon="1.520624">
        <ele>2000.5</ele>
        <time>2014-09-03T11:20:13Z</time>
      </trkpt>
      <trkpt lat="42.154665" lon="1.520739">
        <ele>2001.5</ele>
        <time>2014-09-03T11:20:33Z</time>
      </trkpt>
      <trkpt lat="42.154604" lon="1.520854">
        <ele>2002.6</ele>
        <time>2014-09-03T11:20:53Z</time>
      </trkpt>
      <trkpt lat="42.154584" lon="1.520993">
        <ele>2004.1</ele>
        <time>2014-09-03T11:21:13Z</time>
      </trkpt>
      <trkpt lat="42.154564" lon="1.521132">
        <ele>2005.1</ele>
        <time>2014-09-03T11:21:33Z</time>
      </trkpt>
      <trkpt lat="42.154609" lon="1.521254">
        <ele>2005.6</ele>
        <time>2014-09-03T11:21:53Z</time>
      </trkpt>
      <trkpt lat="42.154655" lon="1.521377">
        <ele>2006.0</ele>
        <time>2014-09-03T11:22:13Z</time>
      </trkpt>
      <trkpt lat="42.154745" lon="1.521503">
        <ele>2006.6</ele>
        <time>2014-09-03T11:22:33Z</time>
      </trkpt>
      <trkpt lat="42.154813" lon="1.521649">
        <ele>2007.2</ele>
        <time>2014-09-03T11:22:53Z</time>
      </trkpt>
      <trkpt lat="42.154881" lon="1.521796">
        <ele>2008.1</ele>
        <time>2014-09-03T11:23:13Z</time>
      </trkpt>
      <trkpt lat="42.154949" lon="1.521943">
        <ele>2009.1</ele>
        <time>2014-09-03T11:23:33Z</time>
      </trkpt>
      <trkpt lat="42.155015" lon="1.522097">
        <ele>2009.3</ele>
        <time>2014-09-03T11:23:53Z</time>
      </trkpt>
      <trkpt lat="42.155082" lon="1.522251">
        <ele>2010.0</ele>
        <time>2014-09-03T11:24:13Z</time>
      </trkpt>
      <trkpt lat="42.155148" lon="1.522405">
        <ele>2010.4</ele>
        <time>2014-09-03T11:24:33Z</time>
      </trkpt>
      <trkpt lat="42.155215" lon="1.522559">
        <ele>2010.4</ele>
        <time>2014-09-03T11:24:53Z</time>
      </trkpt>
      <trkpt lat="42.155291" lon="1.522666">
        <ele>2010.6</ele>
        <time>2014-09-03T11:25:13Z</time>
      </trkpt>
      <trkpt lat="42.155368" lon="1.522773">
        <ele>2010.8</ele>
        <time>2014-09-03T11:25:33Z</time>
      </trkpt>
      <trkpt lat="42.155445" lon="1.522880">
        <ele>2010.9</ele>
        <time>2014-09-03T11:25:53Z</time>
      </trkpt>
      <trkpt lat="42.155521" lon="1.522987">
        <ele>2011.0</ele>
        <time>2014-09-03T11:26:13Z</time>
      </trkpt>
      <trkpt lat="42.155607" lon="1.523089">
        <ele>2011.3</ele>
        <time>2014-09-03T11:26:33Z</time>
      </trkpt>
      <trkpt lat="42.155693" lon="1.523190">
        <ele>2011.7</ele>
        <time>2014-09-03T11:26:53Z</time>
      </trkpt>
      <trkpt lat="42.155779" lon="1.523292">
        <ele>2012.2</ele>
        <time>2014-09-03T11:27:13Z</time>
      </trkpt>
      <trkpt lat="42.155865" lon="1.523394">
        <ele>2012.7</ele>
        <time>2014-09-03T11:27:33Z</time>
      </trkpt>
      <trkpt lat="42.155944" lon="1.523454">
        <ele>2013.0</ele>
        <time>2014-09-03T11:27:53Z</time>
      </trkpt>
      <trkpt lat="42.156023" lon="1.523515">
        <ele>2013.4</ele>
        <time>2014-09-03T11:28:13Z</time>
      </trkpt>
      <trkpt lat="42.156102" lon="1.523576">
        <ele>2013.8</ele>
        <time>2014-09-03T11:28:33Z</time>
      </trkpt>
      <trkpt lat="42.156215" lon="1.523613">
        <ele>2014.3</ele>
        <time>2014-09-03T11:28:53Z</time>
      </trkpt>
      <trkpt lat="42.156329" lon="1.523650">
        <ele>2014.7</ele>
        <time>2014-09-03T11:29:13Z</time>
      </trkpt>
      <trkpt lat="42.156442" lon="1.523687">
        <ele>2015.1</ele>
        <time>2014-09-03T11:29:33Z</time>
      </trkpt>
      <trkpt lat="42.156574" lon="1.523674">
        <ele>2015.7</ele>
        <time>2014-09-03T11:29:53Z</time>
      </trkpt>
      <trkpt lat="42.156707" lon="1.523661">
        <ele>2016.4</ele>
        <time>2014-09-03T11:30:13Z</time>
      </trkpt>
      <trkpt lat="42.156839" lon="1.523648">
        <ele>2017.2</ele>
        <time>2014-09-03T11:30:33Z</time>
      </trkpt>
      <trkpt lat="42.156971" lon="1.523635">
        <ele>2018.0</ele>
        <time>2014-09-03T11:30:53Z</time>
      </trkpt>
      <trkpt lat="42.157065" lon="1.523570">
        <ele>2018.6</ele>
        <time>2014-09-03T11:31:13Z</time>
      </trkpt>
      <trkpt lat="42.157160" lon="1.523505">
        <ele>2019.2</ele>
        <time>2014-09-03T11:31:33Z</time>
      </trkpt>
      <trkpt lat="42.157255" lon="1.523441">
        <ele>2019.7</ele>
        <time>2014-09-03T11:31:53Z</time>
      </trkpt>
      <trkpt lat="42.157340" lon="1.523345">
        <ele>2020.1</ele>
        <time>2014-09-03T11:32:13Z</time>
      </trkpt>
      <trkpt lat="42.157426" lon="1.523250">
        <ele>2020.3</ele>
        <time>2014-09-03T11:32:33Z</time>
      </trkpt>
      <trkpt lat="42.157511" lon="1.523156">
        <ele>2020.6</ele>
        <time>2014-09-03T11:32:53Z</time>
      </trkpt>
      <trkpt lat="42.157597" lon="1.523061">
        <ele>2021.0</ele>
        <time>2014-09-03T11:33:13Z</time>
      </trkpt>
      <trkpt lat="42.157683" lon="1.522966">
        <ele>2021.5</ele>
        <time>2014-09-03T11:33:33Z</time>
      </trkpt>
      <trkpt lat="42.157771" lon="1.522871">
        <ele>2022.1</ele>
        <time>2014-09-03T11:33:53Z</time>
      </trkpt>
      <trkpt lat="42.157859" lon="1.522776">
        <ele>2022.6</ele>
        <time>2014-09-03T11:34:13Z</time>
      </trkpt>
      <trkpt lat="42.157948" lon="1.522681">
        <ele>2023.5</ele>
        <time>2014-09-03T11:34:33Z</time>
      </trkpt>
      <trkpt lat="42.158036" lon="1.522586">
        <ele>2024.5</ele>
        <time>2014-09-03T11:34:53Z</time>
      </trkpt>
      <trkpt lat="42.158125" lon="1.522491">
        <ele>2025.3</ele>
        <time>2014-09-03T11:35:13Z</time>
      </trkpt>
      <trkpt lat="42.158227" lon="1.522405">
        <ele>2025.8</ele>
        <time>2014-09-03T11:35:33Z</time>
      </trkpt>
      <trkpt lat="42.158328" lon="1.522319">
        <ele>2026.3</ele>
        <time>2014-09-03T11:35:53Z</time>
      </trkpt>
      <trkpt lat="42.158430" lon="1.522232">
        <ele>2026.6</ele>
        <time>2014-09-03T11:36:13Z</time>
      </trkpt>
      <trkpt lat="42.158532" lon="1.522146">
        <ele>2027.3</ele>
        <time>2014-09-03T11:36:33Z</time>
      </trkpt>
      <trkpt lat="42.158639" lon="1.522060">
        <ele>2028.4</ele>
        <time>2014-09-03T11:36:53Z</time>
      </trkpt>
      <trkpt lat="42.158746" lon="1.521974">
        <ele>2029.1</ele>
        <time>2014-09-03T11:37:13Z</time>
      </trkpt>
      <trkpt lat="42.158853" lon="1.521889">
        <ele>2029.5</ele>
        <time>2014-09-03T11:37:33Z</time>
      </trkpt>
      <trkpt lat="42.158960" lon="1.521803">
        <ele>2030.0</ele>
        <time>2014-09-03T11:37:53Z</time>
      </trkpt>
      <trkpt lat="42.159067" lon="1.521717">
        <ele>2030.7</ele>
        <time>2014-09-03T11:38:13Z</time>
      </trkpt>
      <trkpt lat="42.159174" lon="1.521631">
        <ele>2031.0</ele>
        <time>2014-09-03T11:38:33Z</time>
      </trkpt>
      <trkpt lat="42.159281" lon="1.521546">
        <ele>2031.7</ele>
        <time>2014-09-03T11:38:53Z</time>
      </trkpt>
      <trkpt lat="42.159396" lon="1.521456">
        <ele>2032.3</ele>
        <time>2014-09-03T11:39:13Z</time>
      </trkpt>
      <trkpt lat="42.159511" lon="1.521366">
        <ele>2033.5</ele>
        <time>2014-09-03T11:39:33Z</time>
      </trkpt>
      <trkpt lat="42.159626" lon="1.521277">
        <ele>2033.5</ele>
        <time>2014-09-03T11:39:53Z</time>
      </trkpt>
      <trkpt lat="42.159741" lon="1.521187">
        <ele>2034.2</ele>
        <time>2014-09-03T11:40:13Z</time>
      </trkpt>
      <trkpt lat="42.159856" lon="1.521097">
        <ele>2035.1</ele>
        <time>2014-09-03T11:40:33Z</time>
      </trkpt>
      <trkpt lat="42.159966" lon="1.521026">
        <ele>2035.8</ele>
        <time>2014-09-03T11:40:53Z</time>
      </trkpt>
      <trkpt lat="42.160075" lon="1.520954">
        <ele>2036.4</ele>
        <time>2014-09-03T11:41:13Z</time>
      </trkpt>
      <trkpt lat="42.160184" lon="1.520882">
        <ele>2036.8</ele>
        <time>2014-09-03T11:41:33Z</time>
      </trkpt>
      <trkpt lat="42.160266" lon="1.520829">
        <ele>2037.2</ele>
        <time>2014-09-03T11:41:53Z</time>
      </trkpt>
      <trkpt lat="42.160294" lon="1.520811">
        <ele>2037.4</ele>
        <time>2014-09-03T11:42:13Z</time>
      </trkpt>
      <trkpt lat="42.160403" lon="1.520739">
        <ele>2037.9</ele>
        <time>2014-09-03T11:42:33Z</time>
      </trkpt>
      <trkpt lat="42.160498" lon="1.520675">
        <ele>2038.7</ele>
        <time>2014-09-03T11:42:53Z</time>
      </trkpt>
      <trkpt lat="42.160593" lon="1.520611">
        <ele>2039.4</ele>
        <time>2014-09-03T11:43:13Z</time>
      </trkpt>
      <trkpt lat="42.160687" lon="1.520547">
        <ele>2040.1</ele>
        <time>2014-09-03T11:43:33Z</time>
      </trkpt>
      <trkpt lat="42.160782" lon="1.520483">
        <ele>2040.7</ele>
        <time>2014-09-03T11:43:53Z</time>
      </trkpt>
      <trkpt lat="42.160887" lon="1.520415">
        <ele>2041.0</ele>
        <time>2014-09-03T11:44:13Z</time>
      </trkpt>
      <trkpt lat="42.160991" lon="1.520347">
        <ele>2041.3</ele>
        <time>2014-09-03T11:44:33Z</time>
      </trkpt>
      <trkpt lat="42.161096" lon="1.520278">
        <ele>2042.4</ele>
        <time>2014-09-03T11:44:53Z</time>
      </trkpt>
      <trkpt lat="42.161223" lon="1.520252">
        <ele>2043.4</ele>
        <time>2014-09-03T11:45:13Z</time>
      </trkpt>
      <trkpt lat="42.161350" lon="1.520226">
        <ele>2044.2</ele>
        <time>2014-09-03T11:45:33Z</time>
      </trkpt>
      <trkpt lat="42.161477" lon="1.520200">
        <ele>2044.5</ele>
        <time>2014-09-03T11:45:53Z</time>
      </trkpt>
      <trkpt lat="42.161572" lon="1.520178">
        <ele>2044.4</ele>
        <time>2014-09-03T11:46:13Z</time>
      </trkpt>
      <trkpt lat="42.161668" lon="1.520156">
        <ele>2044.6</ele>
        <time>2014-09-03T11:46:33Z</time>
      </trkpt>
      <trkpt lat="42.161793" lon="1.520153">
        <ele>2045.4</ele>
        <time>2014-09-03T11:46:53Z</time>
      </trkpt>
      <trkpt lat="42.161918" lon="1.520150">
        <ele>2046.6</ele>
        <time>2014-09-03T11:47:13Z</time>
      </trkpt>
      <trkpt lat="42.161987" lon="1.520109">
        <ele>2047.1</ele>
        <time>2014-09-03T11:47:33Z</time>
      </trkpt>
      <trkpt lat="42.162056" lon="1.520068">
        <ele>2047.5</ele>
        <time>2014-09-03T11:47:53Z</time>
      </trkpt>
      <trkpt lat="42.162129" lon="1.520022">
        <ele>2047.6</ele>
        <time>2014-09-03T11:48:13Z</time>
      </trkpt>
      <trkpt lat="42.162202" lon="1.519975">
        <ele>2047.6</ele>
        <time>2014-09-03T11:48:33Z</time>
      </trkpt>
      <trkpt lat="42.162170" lon="1.519956">
        <ele>2047.3</ele>
        <time>2014-09-03T11:48:53Z</time>
      </trkpt>
      <trkpt lat="42.162093" lon="1.519909">
        <ele>2047.3</ele>
        <time>2014-09-03T11:49:13Z</time>
      </trkpt>
      <trkpt lat="42.161984" lon="1.519842">
        <ele>2046.9</ele>
        <time>2014-09-03T11:49:33Z</time>
      </trkpt>
      <trkpt lat="42.161876" lon="1.519776">
        <ele>2047.3</ele>
        <time>2014-09-03T11:49:53Z</time>
      </trkpt>
      <trkpt lat="42.161774" lon="1.519724">
        <ele>2047.6</ele>
        <time>2014-09-03T11:50:13Z</time>
      </trkpt>
      <trkpt lat="42.161673" lon="1.519672">
        <ele>2047.6</ele>
        <time>2014-09-03T11:50:33Z</time>
      </trkpt>
      <trkpt lat="42.161571" lon="1.519620">
        <ele>2047.6</ele>
        <time>2014-09-03T11:50:53Z</time>
      </trkpt>
      <trkpt lat="42.161469" lon="1.519568">
        <ele>2047.9</ele>
        <time>2014-09-03T11:51:13Z</time>
      </trkpt>
      <trkpt lat="42.161375" lon="1.519518">
        <ele>2047.8</ele>
        <time>2014-09-03T11:51:33Z</time>
      </trkpt>
      <trkpt lat="42.161280" lon="1.519469">
        <ele>2047.6</ele>
        <time>2014-09-03T11:51:53Z</time>
      </trkpt>
      <trkpt lat="42.161186" lon="1.519419">
        <ele>2047.1</ele>
        <time>2014-09-03T11:52:13Z</time>
      </trkpt>
      <trkpt lat="42.161091" lon="1.519369">
        <ele>2047.0</ele>
        <time>2014-09-03T11:52:33Z</time>
      </trkpt>
      <trkpt lat="42.160997" lon="1.519289">
        <ele>2046.8</ele>
        <time>2014-09-03T11:52:53Z</time>
      </trkpt>
      <trkpt lat="42.160903" lon="1.519209">
        <ele>2046.5</ele>
        <time>2014-09-03T11:53:13Z</time>
      </trkpt>
      <trkpt lat="42.160809" lon="1.519129">
        <ele>2045.9</ele>
        <time>2014-09-03T11:53:33Z</time>
      </trkpt>
      <trkpt lat="42.160714" lon="1.519039">
        <ele>2045.1</ele>
        <time>2014-09-03T11:53:53Z</time>
      </trkpt>
      <trkpt lat="42.160620" lon="1.518949">
        <ele>2044.2</ele>
        <time>2014-09-03T11:54:13Z</time>
      </trkpt>
      <trkpt lat="42.160526" lon="1.518859">
        <ele>2044.0</ele>
        <time>2014-09-03T11:54:33Z</time>
      </trkpt>
      <trkpt lat="42.160422" lon="1.518807">
        <ele>2043.9</ele>
        <time>2014-09-03T11:54:53Z</time>
      </trkpt>
      <trkpt lat="42.160319" lon="1.518755">
        <ele>2043.8</ele>
        <time>2014-09-03T11:55:13Z</time>
      </trkpt>
      <trkpt lat="42.160215" lon="1.518703">
        <ele>2043.4</ele>
        <time>2014-09-03T11:55:33Z</time>
      </trkpt>
      <trkpt lat="42.160112" lon="1.518651">
        <ele>2042.6</ele>
        <time>2014-09-03T11:55:53Z</time>
      </trkpt>
      <trkpt lat="42.159987" lon="1.518654">
        <ele>2041.8</ele>
        <time>2014-09-03T11:56:13Z</time>
      </trkpt>
      <trkpt lat="42.159862" lon="1.518657">
        <ele>2041.2</ele>
        <time>2014-09-03T11:56:33Z</time>
      </trkpt>
      <trkpt lat="42.159737" lon="1.518660">
        <ele>2040.6</ele>
        <time>2014-09-03T11:56:53Z</time>
      </trkpt>
      <trkpt lat="42.159612" lon="1.518663">
        <ele>2039.9</ele>
        <time>2014-09-03T11:57:13Z</time>
      </trkpt>
      <trkpt lat="42.159494" lon="1.518652">
        <ele>2039.1</ele>
        <time>2014-09-03T11:57:33Z</time>
      </trkpt>
      <trkpt lat="42.159377" lon="1.518642">
        <ele>2038.1</ele>
        <time>2014-09-03T11:57:53Z</time>
      </trkpt>
      <trkpt lat="42.159259" lon="1.518631">
        <ele>2037.4</ele>
        <time>2014-09-03T11:58:13Z</time>
      </trkpt>
      <trkpt lat="42.159155" lon="1.518584">
        <ele>2037.0</ele>
        <time>2014-09-03T11:58:33Z</time>
      </trkpt>
      <trkpt lat="42.159052" lon="1.518537">
        <ele>2036.3</ele>
        <time>2014-09-03T11:58:53Z</time>
      </trkpt>
      <trkpt lat="42.158942" lon="1.518447">
        <ele>2035.7</ele>
        <time>2014-09-03T11:59:13Z</time>
      </trkpt>
      <trkpt lat="42.158832" lon="1.518357">
        <ele>2035.1</ele>
        <time>2014-09-03T11:59:33Z</time>
      </trkpt>
      <trkpt lat="42.158722" lon="1.518266">
        <ele>2034.2</ele>
        <time>2014-09-03T11:59:53Z</time>
      </trkpt>
      <trkpt lat="42.158612" lon="1.518176">
        <ele>2033.1</ele>
        <time>2014-09-03T12:00:13Z</time>
      </trkpt>
      <trkpt lat="42.158502" lon="1.518086">
        <ele>2032.0</ele>
        <time>2014-09-03T12:00:33Z</time>
      </trkpt>
      <trkpt lat="42.158414" lon="1.517966">
        <ele>2031.3</ele>
        <time>2014-09-03T12:00:53Z</time>
      </trkpt>
      <trkpt lat="42.158327" lon="1.517846">
        <ele>2030.7</ele>
        <time>2014-09-03T12:01:13Z</time>
      </trkpt>
      <trkpt lat="42.158240" lon="1.517726">
        <ele>2030.1</ele>
        <time>2014-09-03T12:01:33Z</time>
      </trkpt>
      <trkpt lat="42.158145" lon="1.517664">
        <ele>2029.1</ele>
        <time>2014-09-03T12:01:53Z</time>
      </trkpt>
      <trkpt lat="42.158051" lon="1.517602">
        <ele>2028.1</ele>
        <time>2014-09-03T12:02:13Z</time>
      </trkpt>
      <trkpt lat="42.157956" lon="1.517540">
        <ele>2027.4</ele>
        <time>2014-09-03T12:02:33Z</time>
      </trkpt>
      <trkpt lat="42.157862" lon="1.517478">
        <ele>2026.8</ele>
        <time>2014-09-03T12:02:53Z</time>
      </trkpt>
      <trkpt lat="42.157751" lon="1.517426">
        <ele>2025.8</ele>
        <time>2014-09-03T12:03:13Z</time>
      </trkpt>
      <trkpt lat="42.157640" lon="1.517375">
        <ele>2024.9</ele>
        <time>2014-09-03T12:03:33Z</time>
      </trkpt>
      <trkpt lat="42.157529" lon="1.517323">
        <ele>2023.9</ele>
        <time>2014-09-03T12:03:53Z</time>
      </trkpt>
      <trkpt lat="42.157418" lon="1.517271">
        <ele>2022.7</ele>
        <time>2014-09-03T12:04:13Z</time>
      </trkpt>
      <trkpt lat="42.157318" lon="1.517170">
        <ele>2021.7</ele>
        <time>2014-09-03T12:04:33Z</time>
      </trkpt>
      <trkpt lat="42.157217" lon="1.517068">
        <ele>2020.4</ele>
        <time>2014-09-03T12:04:53Z</time>
      </trkpt>
      <trkpt lat="42.157116" lon="1.516967">
        <ele>2019.3</ele>
        <time>2014-09-03T12:05:13Z</time>
      </trkpt>
      <trkpt lat="42.157016" lon="1.516865">
        <ele>2018.6</ele>
        <time>2014-09-03T12:05:33Z</time>
      </trkpt>
      <trkpt lat="42.156922" lon="1.516809">
        <ele>2018.0</ele>
        <time>2014-09-03T12:05:53Z</time>
      </trkpt>
      <trkpt lat="42.156828" lon="1.516751">
        <ele>2017.0</ele>
        <time>2014-09-03T12:06:13Z</time>
      </trkpt>
      <trkpt lat="42.156734" lon="1.516694">
        <ele>2016.0</ele>
        <time>2014-09-03T12:06:33Z</time>
      </trkpt>
      <trkpt lat="42.156632" lon="1.516633">
        <ele>2015.1</ele>
        <time>2014-09-03T12:06:53Z</time>
      </trkpt>
      <trkpt lat="42.156530" lon="1.516571">
        <ele>2014.0</ele>
        <time>2014-09-03T12:07:13Z</time>
      </trkpt>
      <trkpt lat="42.156428" lon="1.516509">
        <ele>2012.9</ele>
        <time>2014-09-03T12:07:33Z</time>
      </trkpt>
      <trkpt lat="42.156327" lon="1.516447">
        <ele>2012.3</ele>
        <time>2014-09-03T12:07:53Z</time>
      </trkpt>
      <trkpt lat="42.156234" lon="1.516395">
        <ele>2011.7</ele>
        <time>2014-09-03T12:08:13Z</time>
      </trkpt>
      <trkpt lat="42.156141" lon="1.516343">
        <ele>2011.0</ele>
        <time>2014-09-03T12:08:33Z</time>
      </trkpt>
      <trkpt lat="42.156049" lon="1.516240">
        <ele>2010.2</ele>
        <time>2014-09-03T12:08:53Z</time>
      </trkpt>
      <trkpt lat="42.155958" lon="1.516136">
        <ele>2009.5</ele>
        <time>2014-09-03T12:09:13Z</time>
      </trkpt>
      <trkpt lat="42.155866" lon="1.516033">
        <ele>2008.9</ele>
        <time>2014-09-03T12:09:33Z</time>
      </trkpt>
      <trkpt lat="42.155776" lon="1.515919">
        <ele>2007.9</ele>
        <time>2014-09-03T12:09:53Z</time>
      </trkpt>
      <trkpt lat="42.155686" lon="1.515805">
        <ele>2007.2</ele>
        <time>2014-09-03T12:10:13Z</time>
      </trkpt>
      <trkpt lat="42.155596" lon="1.515691">
        <ele>2006.6</ele>
        <time>2014-09-03T12:10:33Z</time>
      </trkpt>
      <trkpt lat="42.155507" lon="1.515577">
        <ele>2006.5</ele>
        <time>2014-09-03T12:10:53Z</time>
      </trkpt>
      <trkpt lat="42.155395" lon="1.515481">
        <ele>2005.8</ele>
        <time>2014-09-03T12:11:13Z</time>
      </trkpt>
      <trkpt lat="42.155283" lon="1.515384">
        <ele>2005.4</ele>
        <time>2014-09-03T12:11:33Z</time>
      </trkpt>
      <trkpt lat="42.155172" lon="1.515288">
        <ele>2004.5</ele>
        <time>2014-09-03T12:11:53Z</time>
      </trkpt>
      <trkpt lat="42.155076" lon="1.515231">
        <ele>2004.0</ele>
        <time>2014-09-03T12:12:13Z</time>
      </trkpt>
      <trkpt lat="42.154980" lon="1.515174">
        <ele>2003.3</ele>
        <time>2014-09-03T12:12:33Z</time>
      </trkpt>
      <trkpt lat="42.154883" lon="1.515117">
        <ele>2002.5</ele>
        <time>2014-09-03T12:12:53Z</time>
      </trkpt>
      <trkpt lat="42.154776" lon="1.515058">
        <ele>2001.8</ele>
        <time>2014-09-03T12:13:13Z</time>
      </trkpt>
      <trkpt lat="42.154668" lon="1.514999">
        <ele>2001.1</ele>
        <time>2014-09-03T12:13:33Z</time>
      </trkpt>
      <trkpt lat="42.154561" lon="1.514940">
        <ele>2000.7</ele>
        <time>2014-09-03T12:13:53Z</time>
      </trkpt>
      <trkpt lat="42.154454" lon="1.514880">
        <ele>2000.6</ele>
        <time>2014-09-03T12:14:13Z</time>
      </trkpt>
      <trkpt lat="42.154339" lon="1.514824">
        <ele>2000.2</ele>
        <time>2014-09-03T12:14:33Z</time>
      </trkpt>
      <trkpt lat="42.154225" lon="1.514767">
        <ele>1999.6</ele>
        <time>2014-09-03T12:14:53Z</time>
      </trkpt>
      <trkpt lat="42.154149" lon="1.514868">
        <ele>1999.3</ele>
        <time>2014-09-03T12:15:13Z</time>
      </trkpt>
      <trkpt lat="42.154073" lon="1.514968">
        <ele>1998.7</ele>
        <time>2014-09-03T12:15:33Z</time>
      </trkpt>
    </trkseg>
  </trk></gpx>